Time;durP1;ratioP1;P1;durP2;ratioP2;P2;SDS_P1;SDS_P2;PMS_P1;PMS_P2;Temp;Humidity;BMP_temperature;BMP_pressure;BME280_temperature;BME280_humidity;BME280_pressure;Samples;Min_cycle;Max_cycle;Signal;HPM_P1;HPM_P2
2022/01/05 00:01:56;;;;;;;9.55;5.55;;;;;;;4.14;99.04;99147.34;7403074;19;20053;-63
2022/01/05 00:04:25;;;;;;;7.38;4.25;;;;;;;4.13;98.79;99134.41;7402572;19;20011;-64
2022/01/05 00:06:53;;;;;;;6.85;3.50;;;;;;;4.12;98.49;99135.31;7399877;19;20028;-63
2022/01/05 00:09:21;;;;;;;4.20;3.10;;;;;;;4.11;97.98;99133.59;7402364;19;20039;-63
2022/01/05 00:11:49;;;;;;;6.72;2.60;;;;;;;4.08;96.39;99135.38;7402294;19;20018;-63
2022/01/05 00:14:17;;;;;;;5.65;2.45;;;;;;;4.07;96.41;99133.66;7400042;19;20349;-64
2022/01/05 00:16:48;;;;;;;6.53;3.33;;;;;;;4.04;95.71;99127.69;7399747;19;20032;-64
2022/01/05 00:19:16;;;;;;;5.05;2.75;;;;;;;4.05;95.29;99127.63;7401727;19;20487;-64
2022/01/05 00:21:45;;;;;;;5.57;2.38;;;;;;;4.03;95.67;99125.97;7401566;19;20018;-64
2022/01/05 00:24:13;;;;;;;4.32;2.50;;;;;;;4.02;94.79;99138.09;7402712;19;20011;-64
2022/01/05 00:26:41;;;;;;;5.63;2.55;;;;;;;3.97;94.82;99134.75;7399071;19;20018;-70
2022/01/05 00:29:09;;;;;;;6.47;2.47;;;;;;;4.01;94.05;99144.16;7401650;19;20044;-65
2022/01/05 00:31:38;;;;;;;4.25;1.95;;;;;;;4.00;94.29;99146.81;7405390;19;20011;-66
2022/01/05 00:34:08;;;;;;;7.40;2.10;;;;;;;3.98;94.36;99133.00;7404092;19;20023;-66
2022/01/05 00:36:37;;;;;;;2.97;2.10;;;;;;;3.99;96.13;99134.72;7403081;19;20019;-66
2022/01/05 00:39:05;;;;;;;6.00;2.22;;;;;;;3.98;95.46;99133.88;7401549;19;20018;-66
2022/01/05 00:41:33;;;;;;;4.18;1.67;;;;;;;3.98;95.74;99125.22;7400951;19;20383;-66
2022/01/05 00:44:01;;;;;;;5.30;2.13;;;;;;;3.93;95.33;99130.50;7401263;19;20011;-66
2022/01/05 00:46:30;;;;;;;4.47;2.00;;;;;;;3.98;94.81;99143.38;7398785;19;20048;-66
2022/01/05 00:48:58;;;;;;;9.20;2.83;;;;;;;3.98;95.73;99133.88;7401090;19;20037;-66
2022/01/05 00:51:29;;;;;;;3.80;2.22;;;;;;;3.97;95.73;99132.16;7401066;19;20015;-66
2022/01/05 00:53:57;;;;;;;2.97;2.10;;;;;;;3.98;96.22;99123.50;7400211;19;20022;-67
2022/01/05 00:56:25;;;;;;;5.47;2.30;;;;;;;3.99;96.41;99122.56;7398972;19;20022;-66
2022/01/05 00:58:53;;;;;;;3.10;1.88;;;;;;;4.00;96.55;99116.50;7400759;19;20014;-66
2022/01/05 01:01:21;;;;;;;4.60;2.17;;;;;;;4.00;96.44;99108.72;7400658;19;20046;-66
2022/01/05 01:03:50;;;;;;;6.30;2.17;;;;;;;4.01;96.88;99113.03;7400313;19;20044;-66
2022/01/05 01:06:18;;;;;;;5.55;2.05;;;;;;;4.03;97.35;99113.00;7396607;19;20040;-66
2022/01/05 01:08:49;;;;;;;3.53;1.70;;;;;;;4.02;97.15;99114.75;7400133;19;20509;-66
2022/01/05 01:11:17;;;;;;;5.38;2.22;;;;;;;4.02;97.41;99119.94;7400034;19;20019;-66
2022/01/05 01:13:46;;;;;;;4.55;2.13;;;;;;;4.05;97.42;99113.81;7399252;19;20373;-66
2022/01/05 01:16:14;;;;;;;4.45;2.50;;;;;;;4.05;97.50;99112.06;7398595;19;20020;-65
2022/01/05 01:18:42;;;;;;;5.68;2.03;;;;;;;4.07;97.36;99115.50;7399977;19;20041;-66
2022/01/05 01:21:10;;;;;;;5.85;2.42;;;;;;;4.08;97.69;99119.81;7399598;19;20371;-65
2022/01/05 01:23:42;;;;;;;4.90;2.13;;;;;;;4.10;97.67;99119.75;7399565;19;20479;-66
2022/01/05 01:26:12;;;;;;;4.43;2.47;;;;;;;4.10;97.73;99117.16;7398701;19;20037;-66
2022/01/05 01:28:41;;;;;;;4.78;2.40;;;;;;;4.10;97.75;99118.94;7400067;19;20044;-66
2022/01/05 01:31:09;;;;;;;4.50;2.85;;;;;;;4.10;97.65;99124.97;7399757;19;20018;-65
2022/01/05 01:33:37;;;;;;;5.72;3.70;;;;;;;4.11;97.79;99120.59;7398896;19;20032;-65
2022/01/05 01:36:06;;;;;;;8.45;4.68;;;;;;;4.10;97.90;99117.16;7398268;19;20014;-66
2022/01/05 01:38:34;;;;;;;8.55;4.07;;;;;;;4.11;97.60;99118.88;7399530;19;20011;-66
2022/01/05 01:41:02;;;;;;;8.80;5.10;;;;;;;4.10;97.48;99111.13;7398985;19;20014;-66
2022/01/05 01:43:33;;;;;;;7.38;5.22;;;;;;;4.09;97.85;99110.28;7399339;19;20033;-66
2022/01/05 01:46:03;;;;;;;7.10;5.35;;;;;;;4.08;98.16;99114.63;7397772;19;20029;-66
2022/01/05 01:48:31;;;;;;;7.78;4.50;;;;;;;4.08;98.30;99118.94;7399108;19;20022;-66
2022/01/05 01:50:59;;;;;;;7.93;5.22;;;;;;;4.10;98.57;99126.72;7398666;19;20381;-66
2022/01/05 01:53:27;;;;;;;8.98;5.25;;;;;;;4.09;98.80;99120.66;7398460;19;20019;-66
2022/01/05 01:55:59;;;;;;;9.30;5.90;;;;;;;4.08;98.35;99114.63;7397807;19;20045;-66
2022/01/05 01:58:31;;;;;;;8.02;5.43;;;;;;;4.06;98.23;99116.38;7399265;19;20044;-66
2022/01/05 02:01:02;;;;;;;9.30;5.47;;;;;;;4.05;98.24;99113.81;7399051;19;20031;-66
2022/01/05 02:03:31;;;;;;;7.95;5.20;;;;;;;4.02;97.83;99106.97;7399081;19;20036;-66
2022/01/05 02:05:59;;;;;;;10.30;5.18;;;;;;;4.02;98.61;99106.97;7397455;19;20018;-66
2022/01/05 02:08:28;;;;;;;11.73;5.38;;;;;;;4.02;99.15;99103.50;7399209;19;20034;-68
2022/01/05 02:10:56;;;;;;;6.93;5.38;;;;;;;4.02;99.31;99106.97;7399679;19;20018;-66
2022/01/05 02:13:24;;;;;;;9.32;5.28;;;;;;;4.03;99.17;99107.78;7400128;19;20487;-66
2022/01/05 02:15:53;;;;;;;9.88;4.70;;;;;;;4.00;98.86;99116.50;7394658;19;20377;-66
2022/01/05 02:21:08;;;;;;;7.20;4.18;;;;;;;3.96;97.84;99120.06;7395451;19;20393;-66
2022/01/05 02:23:38;;;;;;;9.95;3.70;;;;;;;3.93;96.74;99127.91;7398059;19;20357;-66
2022/01/05 02:26:07;;;;;;;7.32;3.78;;;;;;;3.90;96.94;99134.03;7396738;19;20027;-66
2022/01/05 02:28:43;;;;;;;8.27;3.22;;;;;;;3.89;97.57;99134.03;7397814;19;20031;-66
2022/01/05 02:31:11;;;;;;;8.52;2.70;;;;;;;3.86;97.44;99129.75;7398155;19;20036;-66
2022/01/05 02:33:41;;;;;;;7.57;2.60;;;;;;;3.85;96.81;99124.63;7397465;19;20019;-66
2022/01/05 02:36:16;;;;;;;5.25;2.22;;;;;;;3.83;97.19;99123.78;7396409;19;20018;-66
2022/01/05 02:38:53;;;;;;;5.82;2.30;;;;;;;3.83;97.36;99131.56;7397900;19;20011;-66
2022/01/05 02:41:22;;;;;;;7.30;2.40;;;;;;;3.80;96.98;99126.44;7397772;19;20032;-66
2022/01/05 02:43:50;;;;;;;7.68;2.30;;;;;;;3.77;95.50;99134.28;7397271;19;20024;-66
2022/01/05 02:46:21;;;;;;;6.68;2.33;;;;;;;3.73;95.22;99136.94;7395367;19;20011;-66
2022/01/05 02:48:53;;;;;;;6.10;1.98;;;;;;;3.69;95.44;99144.81;7397565;19;20010;-66
2022/01/05 02:51:24;;;;;;;6.38;1.70;;;;;;;3.60;92.13;99143.25;7397301;19;20044;-66
2022/01/05 02:53:52;;;;;;;6.60;2.05;;;;;;;3.57;94.82;99156.28;7396530;19;20384;-66
2022/01/05 02:56:20;;;;;;;10.85;2.03;;;;;;;3.52;93.93;99158.94;7395640;19;20040;-66
2022/01/05 02:58:49;;;;;;;11.52;1.95;;;;;;;3.49;93.75;99152.97;7396795;19;20015;-66
2022/01/05 03:01:17;;;;;;;7.90;1.63;;;;;;;3.46;94.14;99142.66;7396309;19;20513;-66
2022/01/05 03:03:45;;;;;;;7.68;1.30;;;;;;;3.33;88.46;99142.88;7396617;19;20036;-66
2022/01/05 03:06:13;;;;;;;5.05;1.27;;;;;;;3.28;91.07;99133.47;7395531;19;20044;-66
2022/01/05 03:08:44;;;;;;;7.43;1.30;;;;;;;3.21;91.97;99140.47;7396055;19;20513;-66
2022/01/05 03:11:12;;;;;;;5.55;1.25;;;;;;;3.14;89.34;99150.13;7396434;19;20019;-66
2022/01/05 03:13:41;;;;;;;4.03;1.30;;;;;;;3.05;88.81;99151.13;7396396;19;20019;-66
2022/01/05 03:16:09;;;;;;;10.82;1.65;;;;;;;2.95;88.83;99152.16;7394956;19;20363;-66
2022/01/05 03:18:37;;;;;;;6.60;1.30;;;;;;;2.82;88.62;99173.94;7397844;19;20022;-66
2022/01/05 03:21:06;;;;;;;6.93;1.38;;;;;;;2.72;90.80;99188.78;7397224;19;20011;-66
2022/01/05 03:23:34;;;;;;;4.50;1.08;;;;;;;2.59;92.24;99180.31;7396747;19;20514;-66
2022/01/05 03:26:05;;;;;;;7.32;1.35;;;;;;;2.35;91.11;99200.50;7394833;19;20018;-66
2022/01/05 03:28:33;;;;;;;7.75;1.40;;;;;;;2.20;92.95;99198.09;7393872;19;20022;-66
2022/01/05 03:31:01;;;;;;;5.32;1.30;;;;;;;1.99;92.25;99204.41;7395593;19;20019;-66
2022/01/05 03:33:29;;;;;;;5.28;1.20;;;;;;;1.83;93.97;99212.31;7395619;19;20037;-67
2022/01/05 03:35:57;;;;;;;5.10;1.30;;;;;;;1.69;94.74;99225.38;7393966;19;20364;-67
2022/01/05 03:38:28;;;;;;;8.13;1.35;;;;;;;1.52;94.25;99219.53;7396025;19;20011;-66
2022/01/05 03:40:57;;;;;;;5.90;1.40;;;;;;;1.44;95.72;99215.28;7395389;19;20483;-66
2022/01/05 03:43:27;;;;;;;5.45;1.25;;;;;;;1.39;96.75;99206.72;7395244;19;20422;-66
2022/01/05 03:45:56;;;;;;;6.60;1.40;;;;;;;1.38;96.91;99209.28;7394068;19;20036;-67
2022/01/05 03:48:25;;;;;;;7.60;1.60;;;;;;;1.34;97.59;99198.16;7395054;19;20019;-67
2022/01/05 03:50:53;;;;;;;7.03;1.10;;;;;;;1.30;98.00;99189.56;7395261;19;20028;-66
2022/01/05 03:53:21;;;;;;;5.25;1.13;;;;;;;1.33;98.10;99195.56;7394750;19;20383;-66
2022/01/05 03:55:50;;;;;;;5.43;1.88;;;;;;;1.33;98.22;99195.56;7393222;19;20483;-66
2022/01/05 03:58:18;;;;;;;3.20;1.20;;;;;;;1.32;98.77;99186.97;7395132;19;20040;-66
2022/01/05 04:00:51;;;;;;;6.63;1.13;;;;;;;1.32;98.85;99194.72;7394843;19;20048;-66
2022/01/05 04:03:20;;;;;;;6.97;1.30;;;;;;;1.32;98.91;99192.13;7395092;19;20015;-66
2022/01/05 04:05:48;;;;;;;3.53;1.40;;;;;;;1.32;99.08;99193.88;7394207;19;20019;-66
2022/01/05 04:08:16;;;;;;;8.02;1.30;;;;;;;1.32;99.41;99184.38;7394794;19;20019;-64
2022/01/05 04:10:44;;;;;;;7.43;1.20;;;;;;;1.31;99.47;99182.66;7394801;19;20033;-67
2022/01/05 04:13:14;;;;;;;5.10;1.23;;;;;;;1.30;99.43;99179.22;7394689;19;20041;-66
2022/01/05 04:15:43;;;;;;;7.05;1.45;;;;;;;1.32;99.59;99178.38;7393217;19;20021;-66
2022/01/05 04:18:14;;;;;;;2.60;1.10;;;;;;;1.30;99.71;99183.53;7394502;19;20371;-67
2022/01/05 04:20:42;;;;;;;10.48;1.45;;;;;;;1.28;99.62;99178.38;7394635;19;20021;-66
2022/01/05 04:23:11;;;;;;;6.43;1.63;;;;;;;1.29;99.85;99190.44;7394407;19;20029;-67
2022/01/05 04:25:39;;;;;;;4.70;1.10;;;;;;;1.28;100.00;99195.63;7393257;19;20553;-67
2022/01/05 04:28:08;;;;;;;6.05;1.30;;;;;;;1.27;100.00;99192.16;7393639;19;20378;-67
2022/01/05 04:30:36;;;;;;;4.72;1.23;;;;;;;1.27;100.00;99194.75;7394289;19;20011;-67
2022/01/05 04:33:04;;;;;;;9.95;1.45;;;;;;;1.27;100.00;99196.47;7393769;19;20011;-66
2022/01/05 04:35:35;;;;;;;6.78;1.80;;;;;;;1.27;100.00;99188.72;7392394;19;20023;-66
2022/01/05 04:38:03;;;;;;;3.42;1.63;;;;;;;1.27;100.00;99199.06;7393956;19;20011;-66
2022/01/05 04:40:32;;;;;;;5.03;2.22;;;;;;;1.26;100.00;99200.81;7398987;19;20018;-67
2022/01/05 04:43:00;;;;;;;7.82;1.60;;;;;;;1.25;100.00;99191.34;7400460;19;20518;-66
2022/01/05 04:45:29;;;;;;;9.38;1.58;;;;;;;1.26;100.00;99200.81;7399690;19;20040;-67
2022/01/05 04:47:57;;;;;;;4.95;1.33;;;;;;;1.27;100.00;99201.66;7400916;19;20014;-67
2022/01/05 04:50:25;;;;;;;3.83;1.52;;;;;;;1.25;100.00;99203.38;7400742;19;20390;-67
2022/01/05 04:52:56;;;;;;;7.43;1.55;;;;;;;1.24;100.00;99197.38;7400821;19;20358;-67
2022/01/05 04:55:24;;;;;;;4.05;1.60;;;;;;;1.24;100.00;99210.28;7399670;19;20018;-67
2022/01/05 04:57:52;;;;;;;4.05;1.63;;;;;;;1.23;100.00;99210.31;7400608;19;20018;-66
2022/01/05 05:00:20;;;;;;;5.22;1.33;;;;;;;1.20;100.00;99200.84;7400422;19;20047;-67
2022/01/05 05:02:48;;;;;;;4.30;1.70;;;;;;;1.19;100.00;99203.44;7400641;19;20018;-66
2022/01/05 05:05:17;;;;;;;4.15;1.42;;;;;;;1.19;100.00;99193.09;7400045;19;20057;-66
2022/01/05 05:07:45;;;;;;;5.15;1.98;;;;;;;1.18;100.00;99184.50;7400170;19;20040;-66
2022/01/05 05:10:16;;;;;;;6.30;2.20;;;;;;;1.17;100.00;99169.88;7400134;19;20040;-66
2022/01/05 05:12:44;;;;;;;7.72;2.40;;;;;;;1.17;100.00;99158.69;7400579;19;20350;-67
2022/01/05 05:15:12;;;;;;;6.60;2.13;;;;;;;1.17;100.00;99174.19;7399162;19;20057;-68
2022/01/05 05:17:41;;;;;;;8.55;2.35;;;;;;;1.16;100.00;99186.22;7399909;19;20022;-67
2022/01/05 05:20:10;;;;;;;9.95;2.45;;;;;;;1.16;100.00;99173.31;7399775;19;20111;-67
2022/01/05 05:22:38;;;;;;;6.75;3.20;;;;;;;1.14;100.00;99175.91;7399793;19;20030;-67
2022/01/05 05:25:08;;;;;;;7.88;2.63;;;;;;;1.14;100.00;99168.16;7399161;19;20033;-66
2022/01/05 05:27:39;;;;;;;5.72;1.80;;;;;;;1.11;100.00;99180.25;7398367;19;20509;-66
2022/01/05 05:30:09;;;;;;;4.20;2.08;;;;;;;1.07;100.00;99176.81;7400026;19;20019;-66
2022/01/05 05:32:37;;;;;;;7.15;2.05;;;;;;;1.06;100.00;99174.25;7399221;19;20387;-66
2022/01/05 05:35:07;;;;;;;5.47;1.95;;;;;;;1.03;100.00;99179.47;7397929;19;20462;-66
2022/01/05 05:37:35;;;;;;;7.70;1.70;;;;;;;1.01;100.00;99173.44;7399511;19;20356;-66
2022/01/05 05:40:04;;;;;;;9.57;2.33;;;;;;;1.01;100.00;99187.25;7399226;19;20015;-65
2022/01/05 05:42:32;;;;;;;8.85;1.95;;;;;;;0.97;100.00;99173.50;7398683;19;20014;-65
2022/01/05 05:45:03;;;;;;;6.78;1.70;;;;;;;0.95;100.00;99179.53;7399311;19;20018;-66
2022/01/05 05:47:33;;;;;;;5.03;1.35;;;;;;;0.93;100.00;99181.25;7396190;19;20364;-66
2022/01/05 05:50:01;;;;;;;8.30;1.90;;;;;;;0.92;100.00;99195.03;7399635;19;20040;-66
2022/01/05 05:52:29;;;;;;;5.47;1.73;;;;;;;0.91;100.00;99191.59;7396824;19;20015;-66
2022/01/05 05:54:58;;;;;;;5.68;2.35;;;;;;;0.90;100.00;99201.97;7397674;19;20011;-67
2022/01/05 05:57:26;;;;;;;6.88;2.05;;;;;;;0.88;100.00;99201.94;7397957;19;20015;-66
2022/01/05 05:59:54;;;;;;;7.85;2.45;;;;;;;0.89;100.00;99202.81;7396526;19;20035;-66
2022/01/05 06:02:25;;;;;;;8.07;2.17;;;;;;;0.87;100.00;99201.97;7397610;19;20015;-66
2022/01/05 06:04:53;;;;;;;7.22;2.28;;;;;;;0.86;100.00;99201.13;7396814;19;20374;-66
2022/01/05 06:07:21;;;;;;;6.38;2.60;;;;;;;0.85;100.00;99185.59;7397254;19;20374;-66
2022/01/05 06:09:49;;;;;;;9.85;4.60;;;;;;;0.86;100.00;99202.81;7396867;19;20479;-66
2022/01/05 06:12:18;;;;;;;11.60;4.10;;;;;;;0.85;100.00;99193.34;7397017;19;20036;-66
2022/01/05 06:14:46;;;;;;;9.18;3.00;;;;;;;0.85;100.00;99209.72;7396489;19;20011;-67
2022/01/05 06:17:14;;;;;;;14.88;6.82;;;;;;;0.84;100.00;99218.34;7396252;19;20036;-66
2022/01/05 06:19:45;;;;;;;16.73;3.60;;;;;;;0.84;100.00;99225.22;7396582;19;20014;-66
2022/01/05 06:22:13;;;;;;;6.45;3.45;;;;;;;0.83;100.00;99232.09;7397848;19;20041;-67
2022/01/05 06:24:42;;;;;;;5.65;3.40;;;;;;;0.83;100.00;99237.28;7397994;19;20036;-66
2022/01/05 06:27:10;;;;;;;8.48;3.80;;;;;;;0.83;100.00;99239.84;7395454;19;20026;-66
2022/01/05 06:29:39;;;;;;;7.57;3.75;;;;;;;0.81;100.00;99231.28;7395930;19;20448;-66
2022/01/05 06:32:08;;;;;;;13.48;4.20;;;;;;;0.83;100.00;99236.41;7397928;19;20040;-66
2022/01/05 06:34:36;;;;;;;10.35;4.80;;;;;;;0.81;100.00;99234.69;7397436;19;20087;-67
2022/01/05 06:37:07;;;;;;;9.45;4.43;;;;;;;0.83;100.00;99242.44;7394856;19;20335;-67
2022/01/05 06:39:36;;;;;;;14.02;4.72;;;;;;;0.84;100.00;99246.72;7397008;19;20041;-66
2022/01/05 06:42:04;;;;;;;16.73;5.40;;;;;;;0.85;100.00;99251.03;7396068;19;20037;-66
2022/01/05 06:44:33;;;;;;;12.90;5.18;;;;;;;0.85;100.00;99250.16;7395901;19;20055;-66
2022/01/05 06:47:01;;;;;;;11.45;5.07;;;;;;;0.85;100.00;99256.19;7394092;19;20016;-66
2022/01/05 06:49:29;;;;;;;14.00;6.47;;;;;;;0.87;100.00;99262.19;7396685;19;20015;-66
2022/01/05 06:51:57;;;;;;;12.85;6.07;;;;;;;0.87;100.00;99269.09;7396316;19;20483;-66
2022/01/05 06:54:29;;;;;;;17.30;6.30;;;;;;;0.88;100.00;99265.66;7396288;19;20550;-66
2022/01/05 06:56:58;;;;;;;18.52;6.45;;;;;;;0.90;100.00;99277.69;7394465;19;20504;-66
2022/01/05 06:59:26;;;;;;;11.32;5.57;;;;;;;0.90;100.00;99284.59;7396387;19;20018;-66
2022/01/05 07:01:54;;;;;;;17.73;6.25;;;;;;;0.91;100.00;99278.53;7396359;19;20019;-65
2022/01/05 07:04:22;;;;;;;16.85;6.93;;;;;;;0.87;100.00;99276.84;7396340;19;20051;-66
2022/01/05 07:06:50;;;;;;;12.98;5.75;;;;;;;0.91;100.00;99289.75;7394111;19;20479;-66
2022/01/05 07:09:19;;;;;;;18.90;7.60;;;;;;;0.93;100.00;99292.31;7395692;19;20010;-66
2022/01/05 07:11:49;;;;;;;15.45;6.45;;;;;;;0.92;100.00;99286.28;7396285;19;20040;-67
2022/01/05 07:14:18;;;;;;;10.13;6.53;;;;;;;0.95;100.00;99282.84;7395871;19;20366;-66
2022/01/05 07:16:46;;;;;;;15.30;6.70;;;;;;;0.97;100.00;99276.78;7393868;19;20432;-66
2022/01/05 07:19:15;;;;;;;23.63;8.15;;;;;;;0.98;100.00;99288.81;7395706;19;20019;-66
2022/01/05 07:21:50;;;;;;;18.00;7.63;;;;;;;0.99;100.00;99300.03;7396123;19;20014;-66
2022/01/05 07:24:19;;;;;;;20.90;7.63;;;;;;;1.00;100.00;99303.44;7394884;19;20021;-67
2022/01/05 07:26:51;;;;;;;21.88;9.25;;;;;;;1.01;100.00;99303.47;7394232;19;20086;-67
2022/01/05 07:29:20;;;;;;;23.40;9.30;;;;;;;1.02;100.00;99301.72;7395502;19;20018;-66
2022/01/05 07:31:49;;;;;;;22.73;8.10;;;;;;;1.01;100.00;99308.63;7395628;19;20011;-66
2022/01/05 07:34:18;;;;;;;19.70;8.70;;;;;;;1.02;100.00;99305.16;7394455;19;20014;-67
2022/01/05 07:36:46;;;;;;;19.50;9.43;;;;;;;1.03;100.00;99296.53;7392750;19;20479;-66
2022/01/05 07:39:15;;;;;;;29.92;9.65;;;;;;;0.96;100.00;99293.16;7394624;19;20501;-67
2022/01/05 07:41:43;;;;;;;23.30;11.13;;;;;;;1.03;100.00;99308.59;7395037;19;20033;-66
2022/01/05 07:44:14;;;;;;;27.13;11.68;;;;;;;1.03;100.00;99306.88;7394485;19;20036;-65
2022/01/05 07:46:42;;;;;;;25.92;11.18;;;;;;;1.04;100.00;99306.00;7392659;19;20496;-65
2022/01/05 07:49:10;;;;;;;20.98;10.55;;;;;;;1.05;100.00;99309.44;7394864;19;20018;-65
2022/01/05 07:51:39;;;;;;;24.15;10.75;;;;;;;1.06;100.00;99314.63;7394855;19;20011;-66
2022/01/05 07:54:07;;;;;;;21.70;10.65;;;;;;;1.06;100.00;99304.28;7394911;19;20022;-65
2022/01/05 07:56:35;;;;;;;21.83;9.45;;;;;;;1.08;100.00;99319.78;7393057;19;20022;-66
2022/01/05 07:59:03;;;;;;;19.85;8.95;;;;;;;1.09;100.00;99316.31;7394724;19;20015;-65
2022/01/05 08:01:34;;;;;;;17.73;8.55;;;;;;;1.08;100.00;99323.19;7394078;19;20483;-66
2022/01/05 08:04:02;;;;;;;19.20;8.60;;;;;;;1.10;100.00;99310.25;7394600;19;20386;-66
2022/01/05 08:06:31;;;;;;;15.10;8.30;;;;;;;1.10;100.00;99326.66;7392750;19;20490;-65
2022/01/05 08:09:00;;;;;;;17.67;9.50;;;;;;;1.09;100.00;99324.06;7394458;19;20018;-67
2022/01/05 08:11:28;;;;;;;19.80;8.75;;;;;;;1.09;100.00;99317.16;7394903;19;20018;-66
2022/01/05 08:13:56;;;;;;;18.33;8.85;;;;;;;1.10;100.00;99315.44;7395162;19;20010;-66
2022/01/05 08:16:25;;;;;;;19.25;9.20;;;;;;;1.09;100.00;99314.59;7399043;19;20353;-66
2022/01/05 08:18:55;;;;;;;19.50;8.63;;;;;;;1.09;100.00;99318.91;7401481;19;20030;-66
2022/01/05 08:21:24;;;;;;;19.75;8.43;;;;;;;1.09;100.00;99324.91;7401632;19;20015;-66
2022/01/05 08:23:52;;;;;;;31.02;11.95;;;;;;;1.10;100.00;99324.06;7401122;19;20483;-66
2022/01/05 08:26:27;;;;;;;26.27;14.55;;;;;;;1.12;100.00;99334.38;7399484;19;20014;-66
2022/01/05 08:28:56;;;;;;;18.38;6.72;;;;;;;1.13;100.00;99328.34;7401311;19;20484;-66
2022/01/05 08:31:24;;;;;;;17.17;6.78;;;;;;;1.16;100.00;99330.06;7401550;19;20029;-66
2022/01/05 08:33:56;;;;;;;16.48;6.50;;;;;;;1.15;99.71;99331.78;7401009;19;20018;-66
2022/01/05 08:36:27;;;;;;;16.27;6.00;;;;;;;1.17;99.65;99334.34;7398268;19;20041;-66
2022/01/05 08:38:55;;;;;;;15.40;5.47;;;;;;;1.19;100.00;99335.19;7401457;19;20030;-66
2022/01/05 08:41:23;;;;;;;10.27;4.93;;;;;;;1.20;99.40;99347.25;7400789;19;20014;-66
2022/01/05 08:43:51;;;;;;;13.43;5.63;;;;;;;1.21;99.42;99348.97;7400080;19;20019;-66
2022/01/05 08:46:19;;;;;;;11.32;4.68;;;;;;;1.24;99.52;99351.53;7398241;19;20034;-66
2022/01/05 08:48:48;;;;;;;17.27;6.55;;;;;;;1.25;99.10;99353.25;7400884;19;20019;-66
2022/01/05 08:51:16;;;;;;;18.92;7.07;;;;;;;1.27;99.45;99351.53;7400523;19;20015;-66
2022/01/05 08:53:47;;;;;;;12.25;5.80;;;;;;;1.29;99.13;99348.06;7400743;19;20014;-66
2022/01/05 08:56:15;;;;;;;13.00;5.30;;;;;;;1.30;99.10;99349.78;7399159;19;20035;-66
2022/01/05 08:58:44;;;;;;;11.35;4.35;;;;;;;1.31;98.10;99350.63;7400671;19;20015;-66
2022/01/05 09:01:12;;;;;;;8.68;4.63;;;;;;;1.34;98.44;99362.66;7400118;19;20364;-66
2022/01/05 09:03:41;;;;;;;16.25;4.90;;;;;;;1.34;97.87;99357.50;7399930;19;20487;-66
2022/01/05 09:06:09;;;;;;;14.10;4.25;;;;;;;1.33;97.56;99355.78;7397971;19;20019;-66
2022/01/05 09:08:38;;;;;;;12.57;5.60;;;;;;;1.34;98.11;99368.72;7399741;19;20082;-66
2022/01/05 09:11:09;;;;;;;10.32;4.32;;;;;;;1.33;97.43;99363.53;7399747;19;20014;-65
2022/01/05 09:13:38;;;;;;;9.90;3.88;;;;;;;1.32;97.04;99367.84;7400126;19;20026;-66
2022/01/05 09:16:07;;;;;;;8.57;3.95;;;;;;;1.32;96.72;99369.59;7398148;19;20392;-66
2022/01/05 09:18:36;;;;;;;11.40;3.72;;;;;;;1.30;96.78;99369.56;7400666;19;20018;-66
2022/01/05 09:21:04;;;;;;;15.25;3.67;;;;;;;1.24;95.90;99364.44;7400480;19;20022;-66
2022/01/05 09:23:32;;;;;;;15.13;5.93;;;;;;;1.27;96.53;99370.44;7399836;19;20022;-66
2022/01/05 09:26:00;;;;;;;11.95;5.32;;;;;;;1.27;96.73;99374.78;7395678;19;20044;-67
2022/01/05 09:28:31;;;;;;;10.00;4.50;;;;;;;1.28;97.05;99373.91;7399447;19;20022;-67
2022/01/05 09:30:59;;;;;;;17.38;5.05;;;;;;;1.28;97.14;99379.06;7399443;19;20036;-66
2022/01/05 09:33:28;;;;;;;15.98;4.00;;;;;;;1.28;97.45;99379.06;7399382;19;20048;-65
2022/01/05 09:36:04;;;;;;;23.38;6.80;;;;;;;1.28;97.35;99381.66;7397696;19;20032;-65
2022/01/05 09:41:56;;;;;;;17.08;4.68;;;;;;;1.27;95.68;99383.38;7399262;19;20025;-67
2022/01/05 09:44:11;;;;;;;10.38;4.05;;;;;;;1.30;95.72;99387.66;7398730;19;20011;-66
2022/01/05 09:46:48;;;;;;;14.55;3.33;;;;;;;1.34;94.53;99376.47;7396776;19;20027;-65
2022/01/05 09:49:24;;;;;;;11.43;3.00;;;;;;;1.34;95.08;99379.03;7399153;19;20014;-67
2022/01/05 09:51:57;;;;;;;15.05;3.47;;;;;;;1.40;93.24;99388.47;7399159;19;20036;-66
2022/01/05 09:54:26;;;;;;;12.98;3.42;;;;;;;1.44;93.89;99382.41;7398303;19;20373;-66
2022/01/05 09:56:56;;;;;;;9.48;2.67;;;;;;;1.47;94.18;99385.00;7396295;19;20022;-66
2022/01/05 09:59:28;;;;;;;11.32;3.80;;;;;;;1.44;93.09;99388.47;7398320;19;20014;-66
2022/01/05 10:01:57;;;;;;;9.43;3.38;;;;;;;1.54;94.74;99376.34;7398460;19;20007;-66
2022/01/05 10:04:26;;;;;;;14.70;3.88;;;;;;;1.52;93.89;99374.63;7398525;19;20118;-66
2022/01/05 10:06:54;;;;;;;8.18;3.25;;;;;;;1.61;95.33;99384.91;7396364;19;20052;-66
2022/01/05 10:09:23;;;;;;;12.00;3.08;;;;;;;1.63;95.80;99384.00;7398701;19;20036;-68
2022/01/05 10:11:51;;;;;;;6.72;2.80;;;;;;;1.67;94.91;99387.44;7399060;19;20029;-66
2022/01/05 10:14:19;;;;;;;12.52;3.38;;;;;;;1.71;95.67;99386.53;7398187;19;20015;-67
2022/01/05 10:17:08;;;;;;;7.43;2.67;;;;;;;1.75;94.31;99390.81;7395624;19;20040;-67
2022/01/05 10:19:37;;;;;;;11.68;3.35;;;;;;;1.79;93.79;99378.72;7398191;19;20015;-67
2022/01/05 10:22:07;;;;;;;5.45;2.55;;;;;;;1.82;93.40;99381.31;7397603;19;20014;-67
2022/01/05 10:24:44;;;;;;;10.32;2.92;;;;;;;1.87;93.72;99386.41;7398042;19;20015;-67
2022/01/05 10:27:18;;;;;;;8.63;3.40;;;;;;;1.91;92.81;99386.38;7395646;19;20021;-67
2022/01/05 10:29:55;;;;;;;15.30;7.40;;;;;;;1.96;92.53;99383.78;7398190;19;20107;-67
2022/01/05 10:32:26;;;;;;;8.05;2.85;;;;;;;1.99;91.39;99380.31;7396929;19;20044;-67
2022/01/05 10:35:11;;;;;;;7.97;3.97;;;;;;;2.02;91.82;99381.13;7396801;19;20018;-67
2022/01/05 10:37:41;;;;;;;8.02;2.78;;;;;;;2.06;91.41;99381.94;7395577;19;20040;-67
2022/01/05 10:40:14;;;;;;;6.50;2.15;;;;;;;2.08;89.99;99382.81;7396578;19;20382;-72
2022/01/05 10:42:44;;;;;;;13.75;2.63;;;;;;;2.08;89.40;99386.22;7397582;19;20014;-65
2022/01/05 10:45:15;;;;;;;7.78;2.50;;;;;;;2.13;90.16;99390.53;7396757;19;20040;-66
2022/01/05 10:48:03;;;;;;;9.27;2.80;;;;;;;2.10;88.68;99381.91;7395069;19;20011;-65
2022/01/05 10:50:31;;;;;;;9.82;3.03;;;;;;;2.20;91.02;99379.22;7396341;19;20479;-66
2022/01/05 10:53:01;;;;;;;9.80;3.10;;;;;;;2.22;88.16;99378.34;7396725;19;20010;-65
2022/01/05 10:55:32;;;;;;;12.55;3.30;;;;;;;2.27;88.92;99386.94;7396060;19;20022;-66
2022/01/05 10:58:03;;;;;;;13.40;5.35;;;;;;;2.25;89.00;99380.91;7395930;19;20022;-65
2022/01/05 11:00:34;;;;;;;6.78;2.50;;;;;;;2.33;86.78;99382.59;7396974;19;20018;-66
2022/01/05 11:03:26;;;;;;;5.13;3.30;;;;;;;2.36;85.03;99383.38;7396731;19;20014;-65
2022/01/05 11:06:08;;;;;;;9.23;2.95;;;;;;;2.38;87.14;99389.41;7394830;19;20021;-66
2022/01/05 11:08:49;;;;;;;7.65;3.25;;;;;;;2.42;85.92;99379.88;7396411;19;20036;-66
2022/01/05 11:11:35;;;;;;;10.50;3.13;;;;;;;2.46;83.85;99371.22;7396368;19;20036;-66
2022/01/05 11:14:04;;;;;;;16.75;3.35;;;;;;;2.48;84.40;99381.53;7396407;19;20019;-66
2022/01/05 11:16:33;;;;;;;12.35;2.97;;;;;;;2.52;88.02;99373.72;7394128;19;20063;-66
2022/01/05 11:19:22;;;;;;;8.43;2.72;;;;;;;2.54;82.23;99382.34;7393797;19;20019;-66
2022/01/05 11:22:00;;;;;;;9.80;3.13;;;;;;;2.58;84.88;99380.59;7395859;19;20021;-66
2022/01/05 11:24:30;;;;;;;11.55;3.97;;;;;;;2.60;86.80;99371.06;7395150;19;20500;-66
2022/01/05 11:26:58;;;;;;;9.27;3.28;;;;;;;2.64;85.76;99383.13;7394007;19;20018;-66
2022/01/05 11:29:27;;;;;;;8.80;4.40;;;;;;;2.68;84.91;99389.97;7395255;19;20047;-66
2022/01/05 11:31:57;;;;;;;8.80;3.60;;;;;;;2.70;84.19;99388.19;7395135;19;20497;-67
2022/01/05 11:34:30;;;;;;;11.02;3.90;;;;;;;2.72;85.09;99378.69;7395094;19;20014;-65
2022/01/05 11:37:01;;;;;;;11.35;4.22;;;;;;;2.75;83.86;99385.56;7393433;19;20029;-66
2022/01/05 11:39:31;;;;;;;10.68;3.97;;;;;;;2.77;83.83;99368.28;7396801;19;20015;-66
2022/01/05 11:42:02;;;;;;;6.53;3.42;;;;;;;2.78;82.78;99380.38;7395309;19;20025;-66
2022/01/05 11:44:31;;;;;;;12.40;4.13;;;;;;;2.81;79.66;99369.97;7395582;19;20044;-66
2022/01/05 11:47:19;;;;;;;13.00;3.72;;;;;;;2.86;78.24;99367.31;7392357;19;20014;-66
2022/01/05 11:49:50;;;;;;;6.95;3.50;;;;;;;2.92;80.47;99369.84;7394917;19;20040;-66
2022/01/05 11:52:19;;;;;;;12.30;3.20;;;;;;;2.98;84.53;99368.88;7395646;19;20032;-66
2022/01/05 11:55:03;;;;;;;10.85;3.00;;;;;;;3.02;78.49;99362.78;7394907;19;20014;-66